sensor_id;sensor_type;location;lat;lon;timestamp;P1;durP1;ratioP1;P2;durP2;ratioP2
3767;SDS011;1899;49.966;7.106;2023-06-22T00:01:53;10.03;;;9.00;;
3767;SDS011;1899;49.966;7.106;2023-06-22T00:04:19;11.67;;;10.37;;
3767;SDS011;1899;49.966;7.106;2023-06-22T00:06:44;11.43;;;10.23;;
3767;SDS011;1899;49.966;7.106;2023-06-22T00:09:09;10.57;;;9.47;;
3767;SDS011;1899;49.966;7.106;2023-06-22T00:11:35;13.27;;;10.90;;
3767;SDS011;1899;49.966;7.106;2023-06-22T00:14:01;11.50;;;10.27;;
3767;SDS011;1899;49.966;7.106;2023-06-22T00:16:26;12.00;;;10.70;;
3767;SDS011;1899;49.966;7.106;2023-06-22T00:18:51;13.10;;;10.77;;
3767;SDS011;1899;49.966;7.106;2023-06-22T00:21:16;14.17;;;10.47;;
3767;SDS011;1899;49.966;7.106;2023-06-22T00:23:42;15.07;;;11.43;;
3767;SDS011;1899;49.966;7.106;2023-06-22T00:26:08;15.70;;;11.30;;
3767;SDS011;1899;49.966;7.106;2023-06-22T00:28:33;13.50;;;11.87;;
3767;SDS011;1899;49.966;7.106;2023-06-22T00:30:59;14.73;;;12.07;;
3767;SDS011;1899;49.966;7.106;2023-06-22T00:33:25;15.43;;;11.40;;
3767;SDS011;1899;49.966;7.106;2023-06-22T00:35:50;12.60;;;10.87;;
3767;SDS011;1899;49.966;7.106;2023-06-22T00:38:17;16.10;;;12.30;;
3767;SDS011;1899;49.966;7.106;2023-06-22T00:40:43;17.40;;;12.00;;
3767;SDS011;1899;49.966;7.106;2023-06-22T00:43:08;13.53;;;11.97;;
3767;SDS011;1899;49.966;7.106;2023-06-22T00:45:33;14.73;;;12.60;;
3767;SDS011;1899;49.966;7.106;2023-06-22T00:47:59;12.33;;;11.03;;
3767;SDS011;1899;49.966;7.106;2023-06-22T00:50:25;13.40;;;11.70;;
3767;SDS011;1899;49.966;7.106;2023-06-22T00:52:52;16.60;;;12.57;;
3767;SDS011;1899;49.966;7.106;2023-06-22T00:55:18;17.30;;;12.10;;
3767;SDS011;1899;49.966;7.106;2023-06-22T00:57:45;15.20;;;12.70;;
3767;SDS011;1899;49.966;7.106;2023-06-22T01:00:11;14.20;;;12.80;;
3767;SDS011;1899;49.966;7.106;2023-06-22T01:02:43;15.07;;;12.60;;
3767;SDS011;1899;49.966;7.106;2023-06-22T01:05:16;13.50;;;12.10;;
3767;SDS011;1899;49.966;7.106;2023-06-22T01:12:52;14.63;;;12.43;;
3767;SDS011;1899;49.966;7.106;2023-06-22T01:15:21;16.53;;;13.43;;
3767;SDS011;1899;49.966;7.106;2023-06-22T01:17:48;18.90;;;13.50;;
3767;SDS011;1899;49.966;7.106;2023-06-22T01:20:14;14.97;;;13.30;;
3767;SDS011;1899;49.966;7.106;2023-06-22T01:25:36;16.50;;;12.23;;
3767;SDS011;1899;49.966;7.106;2023-06-22T01:28:10;16.33;;;12.73;;
3767;SDS011;1899;49.966;7.106;2023-06-22T01:30:40;15.03;;;13.20;;
3767;SDS011;1899;49.966;7.106;2023-06-22T01:33:07;12.47;;;11.20;;
3767;SDS011;1899;49.966;7.106;2023-06-22T01:35:34;13.97;;;12.47;;
3767;SDS011;1899;49.966;7.106;2023-06-22T01:37:59;13.20;;;11.90;;
3767;SDS011;1899;49.966;7.106;2023-06-22T01:40:25;13.87;;;12.03;;
3767;SDS011;1899;49.966;7.106;2023-06-22T01:42:51;16.67;;;14.10;;
3767;SDS011;1899;49.966;7.106;2023-06-22T01:45:16;18.90;;;13.87;;
3767;SDS011;1899;49.966;7.106;2023-06-22T01:47:42;15.80;;;13.87;;
3767;SDS011;1899;49.966;7.106;2023-06-22T01:50:08;16.47;;;13.57;;
3767;SDS011;1899;49.966;7.106;2023-06-22T01:52:33;14.23;;;12.70;;
3767;SDS011;1899;49.966;7.106;2023-06-22T01:55:00;17.97;;;13.73;;
3767;SDS011;1899;49.966;7.106;2023-06-22T01:57:26;15.10;;;13.50;;
3767;SDS011;1899;49.966;7.106;2023-06-22T02:00:02;16.17;;;13.97;;
3767;SDS011;1899;49.966;7.106;2023-06-22T02:02:30;19.47;;;14.60;;
3767;SDS011;1899;49.966;7.106;2023-06-22T02:04:58;14.67;;;13.17;;
3767;SDS011;1899;49.966;7.106;2023-06-22T02:07:26;17.30;;;13.27;;
3767;SDS011;1899;49.966;7.106;2023-06-22T02:09:53;15.60;;;13.60;;
3767;SDS011;1899;49.966;7.106;2023-06-22T02:12:21;18.60;;;14.53;;
3767;SDS011;1899;49.966;7.106;2023-06-22T02:14:47;14.30;;;12.80;;
3767;SDS011;1899;49.966;7.106;2023-06-22T02:17:13;16.53;;;12.60;;
3767;SDS011;1899;49.966;7.106;2023-06-22T02:19:41;16.03;;;12.70;;
3767;SDS011;1899;49.966;7.106;2023-06-22T02:22:06;14.67;;;12.87;;
3767;SDS011;1899;49.966;7.106;2023-06-22T02:24:31;14.00;;;12.50;;
3767;SDS011;1899;49.966;7.106;2023-06-22T02:26:58;18.20;;;13.47;;
3767;SDS011;1899;49.966;7.106;2023-06-22T02:29:23;15.00;;;13.13;;
3767;SDS011;1899;49.966;7.106;2023-06-22T02:31:49;16.50;;;13.50;;
3767;SDS011;1899;49.966;7.106;2023-06-22T02:34:14;15.90;;;13.00;;
3767;SDS011;1899;49.966;7.106;2023-06-22T02:36:43;15.60;;;12.60;;
3767;SDS011;1899;49.966;7.106;2023-06-22T02:39:16;13.37;;;11.73;;
3767;SDS011;1899;49.966;7.106;2023-06-22T02:41:41;18.70;;;12.33;;
3767;SDS011;1899;49.966;7.106;2023-06-22T02:44:06;16.43;;;13.07;;
3767;SDS011;1899;49.966;7.106;2023-06-22T02:46:31;17.87;;;12.30;;
3767;SDS011;1899;49.966;7.106;2023-06-22T02:48:56;20.87;;;15.30;;
3767;SDS011;1899;49.966;7.106;2023-06-22T02:51:22;18.33;;;14.37;;
3767;SDS011;1899;49.966;7.106;2023-06-22T02:53:47;18.10;;;15.90;;
3767;SDS011;1899;49.966;7.106;2023-06-22T02:56:13;16.43;;;13.50;;
3767;SDS011;1899;49.966;7.106;2023-06-22T02:58:38;15.23;;;12.40;;
3767;SDS011;1899;49.966;7.106;2023-06-22T03:01:05;18.00;;;14.47;;
3767;SDS011;1899;49.966;7.106;2023-06-22T03:03:30;16.23;;;14.03;;
3767;SDS011;1899;49.966;7.106;2023-06-22T03:05:55;15.50;;;12.90;;
3767;SDS011;1899;49.966;7.106;2023-06-22T03:08:21;15.13;;;12.47;;
3767;SDS011;1899;49.966;7.106;2023-06-22T03:10:46;19.27;;;14.90;;
3767;SDS011;1899;49.966;7.106;2023-06-22T03:13:11;14.80;;;13.30;;
3767;SDS011;1899;49.966;7.106;2023-06-22T03:15:36;15.60;;;13.00;;
3767;SDS011;1899;49.966;7.106;2023-06-22T03:18:02;16.90;;;13.97;;
3767;SDS011;1899;49.966;7.106;2023-06-22T03:20:27;17.07;;;13.67;;
3767;SDS011;1899;49.966;7.106;2023-06-22T03:22:58;21.43;;;13.90;;
3767;SDS011;1899;49.966;7.106;2023-06-22T03:25:23;24.93;;;14.67;;
3767;SDS011;1899;49.966;7.106;2023-06-22T03:27:48;17.67;;;14.00;;
3767;SDS011;1899;49.966;7.106;2023-06-22T03:30:14;16.47;;;13.20;;
3767;SDS011;1899;49.966;7.106;2023-06-22T03:32:39;17.77;;;14.70;;
3767;SDS011;1899;49.966;7.106;2023-06-22T03:35:04;21.03;;;14.83;;
3767;SDS011;1899;49.966;7.106;2023-06-22T03:37:31;18.70;;;14.67;;
3767;SDS011;1899;49.966;7.106;2023-06-22T03:39:56;16.33;;;13.60;;
3767;SDS011;1899;49.966;7.106;2023-06-22T03:42:21;18.10;;;14.23;;
3767;SDS011;1899;49.966;7.106;2023-06-22T03:44:47;15.97;;;13.17;;
3767;SDS011;1899;49.966;7.106;2023-06-22T03:47:12;16.57;;;14.60;;
3767;SDS011;1899;49.966;7.106;2023-06-22T03:49:38;16.90;;;15.10;;
3767;SDS011;1899;49.966;7.106;2023-06-22T03:52:03;19.93;;;13.03;;
3767;SDS011;1899;49.966;7.106;2023-06-22T03:54:29;16.63;;;14.17;;
3767;SDS011;1899;49.966;7.106;2023-06-22T03:56:56;16.10;;;14.10;;
3767;SDS011;1899;49.966;7.106;2023-06-22T03:59:21;15.80;;;13.53;;
3767;SDS011;1899;49.966;7.106;2023-06-22T04:01:46;14.93;;;12.20;;
3767;SDS011;1899;49.966;7.106;2023-06-22T04:04:11;16.77;;;13.07;;
3767;SDS011;1899;49.966;7.106;2023-06-22T04:06:37;16.93;;;13.90;;
3767;SDS011;1899;49.966;7.106;2023-06-22T04:09:03;23.60;;;15.87;;
3767;SDS011;1899;49.966;7.106;2023-06-22T04:11:28;17.20;;;14.60;;
3767;SDS011;1899;49.966;7.106;2023-06-22T04:13:53;16.37;;;13.77;;
3767;SDS011;1899;49.966;7.106;2023-06-22T04:16:19;17.70;;;14.17;;
3767;SDS011;1899;49.966;7.106;2023-06-22T04:18:44;16.80;;;14.13;;
3767;SDS011;1899;49.966;7.106;2023-06-22T04:21:10;16.07;;;12.67;;
3767;SDS011;1899;49.966;7.106;2023-06-22T04:23:35;13.97;;;12.43;;
3767;SDS011;1899;49.966;7.106;2023-06-22T04:26:00;15.03;;;13.10;;
3767;SDS011;1899;49.966;7.106;2023-06-22T04:28:26;14.70;;;12.43;;
3767;SDS011;1899;49.966;7.106;2023-06-22T04:30:51;17.13;;;15.33;;
3767;SDS011;1899;49.966;7.106;2023-06-22T04:33:16;14.70;;;13.20;;
3767;SDS011;1899;49.966;7.106;2023-06-22T04:35:44;15.93;;;11.90;;
3767;SDS011;1899;49.966;7.106;2023-06-22T04:38:09;19.57;;;14.67;;
3767;SDS011;1899;49.966;7.106;2023-06-22T04:40:35;17.33;;;13.07;;
3767;SDS011;1899;49.966;7.106;2023-06-22T04:43:00;16.23;;;12.87;;
3767;SDS011;1899;49.966;7.106;2023-06-22T04:45:27;16.10;;;10.97;;
3767;SDS011;1899;49.966;7.106;2023-06-22T04:47:53;13.60;;;12.17;;
3767;SDS011;1899;49.966;7.106;2023-06-22T04:50:18;13.73;;;11.80;;
3767;SDS011;1899;49.966;7.106;2023-06-22T04:52:46;17.67;;;12.40;;
3767;SDS011;1899;49.966;7.106;2023-06-22T04:55:11;17.03;;;12.27;;
3767;SDS011;1899;49.966;7.106;2023-06-22T04:57:36;17.97;;;13.53;;
3767;SDS011;1899;49.966;7.106;2023-06-22T05:00:04;17.47;;;12.80;;
3767;SDS011;1899;49.966;7.106;2023-06-22T05:02:37;20.87;;;14.10;;
3767;SDS011;1899;49.966;7.106;2023-06-22T05:05:04;14.20;;;11.70;;
3767;SDS011;1899;49.966;7.106;2023-06-22T05:07:35;15.40;;;12.33;;
3767;SDS011;1899;49.966;7.106;2023-06-22T05:10:03;15.63;;;12.10;;
3767;SDS011;1899;49.966;7.106;2023-06-22T05:12:29;13.70;;;11.70;;
3767;SDS011;1899;49.966;7.106;2023-06-22T05:14:55;19.87;;;12.77;;
3767;SDS011;1899;49.966;7.106;2023-06-22T05:17:20;15.17;;;12.20;;
3767;SDS011;1899;49.966;7.106;2023-06-22T05:19:45;19.00;;;13.83;;
3767;SDS011;1899;49.966;7.106;2023-06-22T05:22:14;13.90;;;11.50;;
3767;SDS011;1899;49.966;7.106;2023-06-22T05:24:39;15.00;;;13.33;;
3767;SDS011;1899;49.966;7.106;2023-06-22T05:27:05;14.10;;;12.10;;
3767;SDS011;1899;49.966;7.106;2023-06-22T05:29:30;13.47;;;11.70;;
3767;SDS011;1899;49.966;7.106;2023-06-22T05:31:55;13.83;;;11.97;;
3767;SDS011;1899;49.966;7.106;2023-06-22T05:34:20;14.40;;;12.43;;
3767;SDS011;1899;49.966;7.106;2023-06-22T05:36:46;14.67;;;11.97;;
3767;SDS011;1899;49.966;7.106;2023-06-22T05:39:12;13.80;;;12.30;;
3767;SDS011;1899;49.966;7.106;2023-06-22T05:41:38;14.83;;;12.83;;
3767;SDS011;1899;49.966;7.106;2023-06-22T05:44:03;13.70;;;11.17;;
3767;SDS011;1899;49.966;7.106;2023-06-22T05:46:29;17.73;;;12.10;;
3767;SDS011;1899;49.966;7.106;2023-06-22T05:48:54;13.07;;;11.67;;
3767;SDS011;1899;49.966;7.106;2023-06-22T05:51:19;16.63;;;11.20;;
3767;SDS011;1899;49.966;7.106;2023-06-22T05:53:44;14.07;;;11.40;;
3767;SDS011;1899;49.966;7.106;2023-06-22T05:56:14;16.13;;;12.33;;
3767;SDS011;1899;49.966;7.106;2023-06-22T05:58:39;13.47;;;10.20;;
3767;SDS011;1899;49.966;7.106;2023-06-22T06:01:04;13.10;;;11.20;;
3767;SDS011;1899;49.966;7.106;2023-06-22T06:03:30;14.20;;;11.23;;
3767;SDS011;1899;49.966;7.106;2023-06-22T06:05:55;15.30;;;11.17;;
3767;SDS011;1899;49.966;7.106;2023-06-22T06:08:20;12.27;;;11.07;;
3767;SDS011;1899;49.966;7.106;2023-06-22T06:10:46;12.70;;;11.20;;
3767;SDS011;1899;49.966;7.106;2023-06-22T06:13:12;13.13;;;11.77;;
3767;SDS011;1899;49.966;7.106;2023-06-22T06:15:37;13.80;;;12.30;;
3767;SDS011;1899;49.966;7.106;2023-06-22T06:18:03;13.77;;;11.13;;
3767;SDS011;1899;49.966;7.106;2023-06-22T06:20:30;12.00;;;10.70;;
3767;SDS011;1899;49.966;7.106;2023-06-22T06:22:56;13.17;;;10.87;;
3767;SDS011;1899;49.966;7.106;2023-06-22T06:25:21;13.50;;;11.00;;
3767;SDS011;1899;49.966;7.106;2023-06-22T06:27:47;13.30;;;11.30;;
3767;SDS011;1899;49.966;7.106;2023-06-22T06:30:13;13.23;;;11.03;;
3767;SDS011;1899;49.966;7.106;2023-06-22T06:32:39;14.23;;;10.53;;
3767;SDS011;1899;49.966;7.106;2023-06-22T06:35:08;12.00;;;10.47;;
3767;SDS011;1899;49.966;7.106;2023-06-22T06:37:37;14.60;;;10.80;;
3767;SDS011;1899;49.966;7.106;2023-06-22T06:40:03;14.13;;;11.30;;
3767;SDS011;1899;49.966;7.106;2023-06-22T06:42:30;11.70;;;10.50;;
3767;SDS011;1899;49.966;7.106;2023-06-22T06:44:56;13.23;;;11.83;;
3767;SDS011;1899;49.966;7.106;2023-06-22T06:47:21;12.60;;;10.17;;
3767;SDS011;1899;49.966;7.106;2023-06-22T06:49:46;11.20;;;9.33;;
3767;SDS011;1899;49.966;7.106;2023-06-22T06:52:12;10.27;;;8.57;;
3767;SDS011;1899;49.966;7.106;2023-06-22T06:54:37;11.60;;;9.67;;
3767;SDS011;1899;49.966;7.106;2023-06-22T06:57:02;10.70;;;9.60;;
3767;SDS011;1899;49.966;7.106;2023-06-22T06:59:28;11.40;;;8.60;;
3767;SDS011;1899;49.966;7.106;2023-06-22T07:01:54;14.37;;;8.97;;
3767;SDS011;1899;49.966;7.106;2023-06-22T07:04:19;9.63;;;8.63;;
3767;SDS011;1899;49.966;7.106;2023-06-22T07:06:44;15.43;;;8.73;;
3767;SDS011;1899;49.966;7.106;2023-06-22T07:09:09;8.20;;;7.20;;
3767;SDS011;1899;49.966;7.106;2023-06-22T07:11:35;9.50;;;8.50;;
3767;SDS011;1899;49.966;7.106;2023-06-22T07:14:01;10.40;;;8.13;;
3767;SDS011;1899;49.966;7.106;2023-06-22T07:16:26;10.47;;;9.40;;
3767;SDS011;1899;49.966;7.106;2023-06-22T07:18:53;9.23;;;8.17;;
3767;SDS011;1899;49.966;7.106;2023-06-22T07:21:18;12.20;;;8.63;;
3767;SDS011;1899;49.966;7.106;2023-06-22T07:23:43;11.43;;;9.47;;
3767;SDS011;1899;49.966;7.106;2023-06-22T07:26:08;10.57;;;9.00;;
3767;SDS011;1899;49.966;7.106;2023-06-22T07:28:34;8.90;;;8.00;;
3767;SDS011;1899;49.966;7.106;2023-06-22T07:31:02;9.30;;;8.30;;
3767;SDS011;1899;49.966;7.106;2023-06-22T07:33:28;8.73;;;7.83;;
3767;SDS011;1899;49.966;7.106;2023-06-22T07:35:54;12.77;;;8.93;;
3767;SDS011;1899;49.966;7.106;2023-06-22T07:38:19;9.60;;;8.70;;
3767;SDS011;1899;49.966;7.106;2023-06-22T07:40:44;10.60;;;9.03;;
3767;SDS011;1899;49.966;7.106;2023-06-22T07:43:10;11.30;;;8.47;;
3767;SDS011;1899;49.966;7.106;2023-06-22T07:45:35;9.03;;;8.03;;
3767;SDS011;1899;49.966;7.106;2023-06-22T07:48:00;9.20;;;8.20;;
3767;SDS011;1899;49.966;7.106;2023-06-22T07:50:26;11.00;;;8.40;;
3767;SDS011;1899;49.966;7.106;2023-06-22T07:52:51;11.40;;;9.17;;
3767;SDS011;1899;49.966;7.106;2023-06-22T07:55:18;9.60;;;8.67;;
3767;SDS011;1899;49.966;7.106;2023-06-22T07:57:43;10.03;;;8.73;;
3767;SDS011;1899;49.966;7.106;2023-06-22T08:00:08;10.13;;;8.20;;
3767;SDS011;1899;49.966;7.106;2023-06-22T08:02:41;10.83;;;8.67;;
3767;SDS011;1899;49.966;7.106;2023-06-22T08:05:07;9.03;;;8.13;;
3767;SDS011;1899;49.966;7.106;2023-06-22T08:07:33;8.70;;;7.87;;
3767;SDS011;1899;49.966;7.106;2023-06-22T08:09:59;8.87;;;7.90;;
3767;SDS011;1899;49.966;7.106;2023-06-22T08:12:25;8.67;;;7.80;;
3767;SDS011;1899;49.966;7.106;2023-06-22T08:14:50;9.13;;;7.87;;
3767;SDS011;1899;49.966;7.106;2023-06-22T08:17:15;8.40;;;7.47;;
3767;SDS011;1899;49.966;7.106;2023-06-22T08:19:41;9.30;;;6.67;;
3767;SDS011;1899;49.966;7.106;2023-06-22T08:22:06;8.40;;;7.20;;
3767;SDS011;1899;49.966;7.106;2023-06-22T08:24:31;8.50;;;7.63;;
3767;SDS011;1899;49.966;7.106;2023-06-22T08:26:56;7.00;;;6.30;;
3767;SDS011;1899;49.966;7.106;2023-06-22T08:29:22;7.50;;;6.73;;
3767;SDS011;1899;49.966;7.106;2023-06-22T08:31:47;11.40;;;6.87;;
3767;SDS011;1899;49.966;7.106;2023-06-22T08:34:12;7.00;;;6.30;;
3767;SDS011;1899;49.966;7.106;2023-06-22T08:36:37;8.03;;;7.23;;
3767;SDS011;1899;49.966;7.106;2023-06-22T08:39:06;8.43;;;6.63;;
3767;SDS011;1899;49.966;7.106;2023-06-22T08:41:31;10.57;;;6.77;;
3767;SDS011;1899;49.966;7.106;2023-06-22T08:43:57;8.53;;;6.20;;
3767;SDS011;1899;49.966;7.106;2023-06-22T08:46:22;8.33;;;6.30;;
3767;SDS011;1899;49.966;7.106;2023-06-22T08:48:55;9.57;;;6.97;;
3767;SDS011;1899;49.966;7.106;2023-06-22T08:51:20;7.10;;;6.40;;
3767;SDS011;1899;49.966;7.106;2023-06-22T08:53:45;7.63;;;6.40;;
3767;SDS011;1899;49.966;7.106;2023-06-22T08:56:10;9.57;;;6.10;;
3767;SDS011;1899;49.966;7.106;2023-06-22T08:58:36;7.87;;;7.07;;
3767;SDS011;1899;49.966;7.106;2023-06-22T09:01:01;8.30;;;6.00;;
3767;SDS011;1899;49.966;7.106;2023-06-22T09:03:27;7.00;;;5.90;;
3767;SDS011;1899;49.966;7.106;2023-06-22T09:05:52;9.73;;;5.67;;
3767;SDS011;1899;49.966;7.106;2023-06-22T09:08:17;12.33;;;5.77;;
3767;SDS011;1899;49.966;7.106;2023-06-22T09:10:43;6.37;;;5.63;;
3767;SDS011;1899;49.966;7.106;2023-06-22T09:13:08;6.97;;;6.27;;
3767;SDS011;1899;49.966;7.106;2023-06-22T09:15:33;6.63;;;5.73;;
3767;SDS011;1899;49.966;7.106;2023-06-22T09:17:59;6.73;;;5.47;;
3767;SDS011;1899;49.966;7.106;2023-06-22T09:20:24;6.93;;;5.90;;
3767;SDS011;1899;49.966;7.106;2023-06-22T09:22:50;7.33;;;5.93;;
3767;SDS011;1899;49.966;7.106;2023-06-22T09:25:15;6.47;;;5.77;;
3767;SDS011;1899;49.966;7.106;2023-06-22T09:27:40;8.13;;;6.00;;
3767;SDS011;1899;49.966;7.106;2023-06-22T09:30:06;6.93;;;5.17;;
3767;SDS011;1899;49.966;7.106;2023-06-22T09:32:31;8.30;;;6.13;;
3767;SDS011;1899;49.966;7.106;2023-06-22T09:34:57;6.70;;;6.00;;
3767;SDS011;1899;49.966;7.106;2023-06-22T09:37:22;6.83;;;6.13;;
3767;SDS011;1899;49.966;7.106;2023-06-22T09:39:47;9.90;;;7.17;;
3767;SDS011;1899;49.966;7.106;2023-06-22T09:42:12;8.40;;;6.23;;
3767;SDS011;1899;49.966;7.106;2023-06-22T09:44:38;8.33;;;5.70;;
3767;SDS011;1899;49.966;7.106;2023-06-22T09:47:04;6.70;;;6.00;;
3767;SDS011;1899;49.966;7.106;2023-06-22T09:49:29;7.93;;;6.40;;
3767;SDS011;1899;49.966;7.106;2023-06-22T09:51:54;8.83;;;6.13;;
3767;SDS011;1899;49.966;7.106;2023-06-22T09:54:20;12.23;;;6.93;;
3767;SDS011;1899;49.966;7.106;2023-06-22T09:56:45;11.20;;;7.63;;
3767;SDS011;1899;49.966;7.106;2023-06-22T09:59:10;8.10;;;6.73;;
3767;SDS011;1899;49.966;7.106;2023-06-22T10:01:36;10.13;;;7.10;;
3767;SDS011;1899;49.966;7.106;2023-06-22T10:04:02;8.87;;;7.00;;
3767;SDS011;1899;49.966;7.106;2023-06-22T10:06:27;10.60;;;7.30;;
3767;SDS011;1899;49.966;7.106;2023-06-22T10:08:52;9.13;;;6.77;;
3767;SDS011;1899;49.966;7.106;2023-06-22T10:11:18;8.70;;;7.07;;
3767;SDS011;1899;49.966;7.106;2023-06-22T10:13:43;5.90;;;5.23;;
3767;SDS011;1899;49.966;7.106;2023-06-22T10:16:08;8.40;;;6.40;;
3767;SDS011;1899;49.966;7.106;2023-06-22T10:18:33;8.13;;;7.00;;
3767;SDS011;1899;49.966;7.106;2023-06-22T10:20:59;7.90;;;5.97;;
3767;SDS011;1899;49.966;7.106;2023-06-22T10:23:24;7.30;;;6.50;;
3767;SDS011;1899;49.966;7.106;2023-06-22T10:25:50;9.37;;;7.37;;
3767;SDS011;1899;49.966;7.106;2023-06-22T10:28:16;7.37;;;6.20;;
3767;SDS011;1899;49.966;7.106;2023-06-22T10:30:41;9.63;;;7.00;;
3767;SDS011;1899;49.966;7.106;2023-06-22T10:33:07;6.90;;;6.20;;
3767;SDS011;1899;49.966;7.106;2023-06-22T10:35:32;10.20;;;6.03;;
3767;SDS011;1899;49.966;7.106;2023-06-22T10:37:57;7.30;;;6.60;;
3767;SDS011;1899;49.966;7.106;2023-06-22T10:40:23;8.27;;;6.33;;
3767;SDS011;1899;49.966;7.106;2023-06-22T10:42:48;7.93;;;6.80;;
3767;SDS011;1899;49.966;7.106;2023-06-22T10:45:15;11.13;;;7.40;;
3767;SDS011;1899;49.966;7.106;2023-06-22T10:47:40;7.43;;;6.73;;
3767;SDS011;1899;49.966;7.106;2023-06-22T10:50:07;7.90;;;7.10;;
3767;SDS011;1899;49.966;7.106;2023-06-22T10:52:32;6.80;;;6.07;;
3767;SDS011;1899;49.966;7.106;2023-06-22T10:54:58;8.63;;;7.40;;
3767;SDS011;1899;49.966;7.106;2023-06-22T10:57:23;7.33;;;6.60;;
3767;SDS011;1899;49.966;7.106;2023-06-22T10:59:48;7.53;;;6.40;;
3767;SDS011;1899;49.966;7.106;2023-06-22T11:02:13;8.87;;;7.50;;
3767;SDS011;1899;49.966;7.106;2023-06-22T11:04:39;8.87;;;6.23;;
3767;SDS011;1899;49.966;7.106;2023-06-22T11:07:04;7.40;;;6.70;;
3767;SDS011;1899;49.966;7.106;2023-06-22T11:09:29;7.73;;;6.93;;
3767;SDS011;1899;49.966;7.106;2023-06-22T11:11:55;7.83;;;6.70;;
3767;SDS011;1899;49.966;7.106;2023-06-22T11:14:20;7.70;;;6.90;;
3767;SDS011;1899;49.966;7.106;2023-06-22T11:16:46;7.07;;;6.40;;
3767;SDS011;1899;49.966;7.106;2023-06-22T11:19:12;6.93;;;5.73;;
3767;SDS011;1899;49.966;7.106;2023-06-22T11:21:37;6.60;;;6.00;;
3767;SDS011;1899;49.966;7.106;2023-06-22T11:24:02;7.87;;;6.77;;
3767;SDS011;1899;49.966;7.106;2023-06-22T11:26:27;7.63;;;6.83;;
3767;SDS011;1899;49.966;7.106;2023-06-22T11:28:53;7.50;;;6.80;;
3767;SDS011;1899;49.966;7.106;2023-06-22T11:31:18;9.63;;;6.90;;
3767;SDS011;1899;49.966;7.106;2023-06-22T11:33:44;7.70;;;6.90;;
3767;SDS011;1899;49.966;7.106;2023-06-22T11:36:11;10.00;;;6.57;;
3767;SDS011;1899;49.966;7.106;2023-06-22T11:38:36;8.53;;;7.50;;
3767;SDS011;1899;49.966;7.106;2023-06-22T11:41:04;8.20;;;6.70;;
3767;SDS011;1899;49.966;7.106;2023-06-22T11:43:29;7.43;;;5.97;;
3767;SDS011;1899;49.966;7.106;2023-06-22T11:45:54;8.60;;;6.30;;
3767;SDS011;1899;49.966;7.106;2023-06-22T11:48:21;8.60;;;7.07;;
3767;SDS011;1899;49.966;7.106;2023-06-22T11:50:46;8.50;;;7.50;;
3767;SDS011;1899;49.966;7.106;2023-06-22T11:53:11;7.27;;;6.57;;
3767;SDS011;1899;49.966;7.106;2023-06-22T11:55:37;7.57;;;6.73;;
3767;SDS011;1899;49.966;7.106;2023-06-22T11:58:02;6.53;;;5.90;;
3767;SDS011;1899;49.966;7.106;2023-06-22T12:00:29;7.30;;;6.70;;
3767;SDS011;1899;49.966;7.106;2023-06-22T12:02:55;7.97;;;6.83;;
3767;SDS011;1899;49.966;7.106;2023-06-22T12:05:21;7.50;;;6.70;;
3767;SDS011;1899;49.966;7.106;2023-06-22T12:07:47;7.70;;;6.90;;
3767;SDS011;1899;49.966;7.106;2023-06-22T12:10:12;7.10;;;6.50;;
3767;SDS011;1899;49.966;7.106;2023-06-22T12:12:37;8.07;;;7.23;;
3767;SDS011;1899;49.966;7.106;2023-06-22T12:15:03;6.90;;;6.20;;
3767;SDS011;1899;49.966;7.106;2023-06-22T12:17:29;7.03;;;6.33;;
3767;SDS011;1899;49.966;7.106;2023-06-22T12:19:54;7.30;;;6.63;;
3767;SDS011;1899;49.966;7.106;2023-06-22T12:22:19;8.37;;;6.10;;
3767;SDS011;1899;49.966;7.106;2023-06-22T12:24:44;7.80;;;6.87;;
3767;SDS011;1899;49.966;7.106;2023-06-22T12:27:10;8.00;;;6.57;;
3767;SDS011;1899;49.966;7.106;2023-06-22T12:29:35;6.53;;;5.93;;
3767;SDS011;1899;49.966;7.106;2023-06-22T12:32:00;12.40;;;7.03;;
3767;SDS011;1899;49.966;7.106;2023-06-22T12:34:25;7.30;;;6.60;;
3767;SDS011;1899;49.966;7.106;2023-06-22T12:36:51;7.43;;;6.73;;
3767;SDS011;1899;49.966;7.106;2023-06-22T12:39:19;14.10;;;7.83;;
3767;SDS011;1899;49.966;7.106;2023-06-22T12:41:44;8.00;;;6.63;;
3767;SDS011;1899;49.966;7.106;2023-06-22T12:44:09;7.70;;;6.90;;
3767;SDS011;1899;49.966;7.106;2023-06-22T12:46:34;6.93;;;6.33;;
3767;SDS011;1899;49.966;7.106;2023-06-22T12:49:02;7.90;;;6.70;;
3767;SDS011;1899;49.966;7.106;2023-06-22T12:51:29;7.00;;;6.00;;
3767;SDS011;1899;49.966;7.106;2023-06-22T12:53:54;7.50;;;6.57;;
3767;SDS011;1899;49.966;7.106;2023-06-22T12:56:19;10.27;;;6.93;;
3767;SDS011;1899;49.966;7.106;2023-06-22T12:58:44;7.77;;;6.57;;
3767;SDS011;1899;49.966;7.106;2023-06-22T13:01:10;9.73;;;6.47;;
3767;SDS011;1899;49.966;7.106;2023-06-22T13:03:35;8.07;;;6.70;;
3767;SDS011;1899;49.966;7.106;2023-06-22T13:06:00;10.03;;;7.57;;
3767;SDS011;1899;49.966;7.106;2023-06-22T13:08:25;9.00;;;7.37;;
3767;SDS011;1899;49.966;7.106;2023-06-22T13:10:51;18.63;;;9.20;;
3767;SDS011;1899;49.966;7.106;2023-06-22T13:13:16;9.80;;;8.17;;
3767;SDS011;1899;49.966;7.106;2023-06-22T13:15:41;10.97;;;7.67;;
3767;SDS011;1899;49.966;7.106;2023-06-22T13:18:07;11.80;;;8.90;;
3767;SDS011;1899;49.966;7.106;2023-06-22T13:20:32;10.00;;;6.30;;
3767;SDS011;1899;49.966;7.106;2023-06-22T13:22:57;7.83;;;5.80;;
3767;SDS011;1899;49.966;7.106;2023-06-22T13:25:22;13.23;;;6.20;;
3767;SDS011;1899;49.966;7.106;2023-06-22T13:27:51;8.17;;;6.40;;
3767;SDS011;1899;49.966;7.106;2023-06-22T13:30:16;9.67;;;7.20;;
3767;SDS011;1899;49.966;7.106;2023-06-22T13:32:42;11.37;;;5.90;;
3767;SDS011;1899;49.966;7.106;2023-06-22T13:35:08;14.97;;;6.90;;
3767;SDS011;1899;49.966;7.106;2023-06-22T13:37:33;13.83;;;5.77;;
3767;SDS011;1899;49.966;7.106;2023-06-22T13:39:59;7.63;;;5.03;;
3767;SDS011;1899;49.966;7.106;2023-06-22T13:42:24;8.27;;;5.47;;
3767;SDS011;1899;49.966;7.106;2023-06-22T13:44:50;11.27;;;6.60;;
3767;SDS011;1899;49.966;7.106;2023-06-22T13:47:15;10.50;;;5.60;;
3767;SDS011;1899;49.966;7.106;2023-06-22T13:49:40;8.97;;;5.97;;
3767;SDS011;1899;49.966;7.106;2023-06-22T13:52:06;14.23;;;7.17;;
3767;SDS011;1899;49.966;7.106;2023-06-22T13:54:35;10.10;;;6.00;;
3767;SDS011;1899;49.966;7.106;2023-06-22T13:57:01;15.30;;;7.40;;
3767;SDS011;1899;49.966;7.106;2023-06-22T13:59:26;9.73;;;5.67;;
3767;SDS011;1899;49.966;7.106;2023-06-22T14:01:53;10.17;;;5.30;;
3767;SDS011;1899;49.966;7.106;2023-06-22T14:04:18;8.03;;;4.30;;
3767;SDS011;1899;49.966;7.106;2023-06-22T14:06:43;6.87;;;3.90;;
3767;SDS011;1899;49.966;7.106;2023-06-22T14:09:09;11.07;;;3.60;;
3767;SDS011;1899;49.966;7.106;2023-06-22T14:11:34;11.40;;;4.60;;
3767;SDS011;1899;49.966;7.106;2023-06-22T14:13:59;7.87;;;4.07;;
3767;SDS011;1899;49.966;7.106;2023-06-22T14:16:25;12.03;;;3.77;;
3767;SDS011;1899;49.966;7.106;2023-06-22T14:18:50;10.73;;;4.23;;
3767;SDS011;1899;49.966;7.106;2023-06-22T14:21:15;7.90;;;4.20;;
3767;SDS011;1899;49.966;7.106;2023-06-22T14:23:41;11.90;;;5.23;;
3767;SDS011;1899;49.966;7.106;2023-06-22T14:26:06;9.80;;;4.00;;
3767;SDS011;1899;49.966;7.106;2023-06-22T14:28:31;9.67;;;5.00;;
3767;SDS011;1899;49.966;7.106;2023-06-22T14:30:56;8.30;;;4.43;;
3767;SDS011;1899;49.966;7.106;2023-06-22T14:33:22;12.67;;;5.43;;
3767;SDS011;1899;49.966;7.106;2023-06-22T14:35:47;6.60;;;4.63;;
3767;SDS011;1899;49.966;7.106;2023-06-22T14:38:12;7.47;;;4.97;;
3767;SDS011;1899;49.966;7.106;2023-06-22T14:40:38;8.20;;;5.40;;
3767;SDS011;1899;49.966;7.106;2023-06-22T14:43:03;5.73;;;4.10;;
3767;SDS011;1899;49.966;7.106;2023-06-22T14:45:28;8.83;;;5.73;;
3767;SDS011;1899;49.966;7.106;2023-06-22T14:47:53;9.20;;;5.20;;
3767;SDS011;1899;49.966;7.106;2023-06-22T14:50:19;9.20;;;4.43;;
3767;SDS011;1899;49.966;7.106;2023-06-22T14:52:44;11.53;;;4.80;;
3767;SDS011;1899;49.966;7.106;2023-06-22T14:55:09;7.27;;;4.30;;
3767;SDS011;1899;49.966;7.106;2023-06-22T14:57:35;8.07;;;4.47;;
3767;SDS011;1899;49.966;7.106;2023-06-22T15:00:00;7.03;;;4.97;;